createdAt,value
2023-05-08T00:03:47.109Z,4.78
2023-05-08T00:08:48.727Z,4.78
2023-05-08T00:13:50.299Z,4.85
2023-05-08T00:18:53.516Z,5.22
2023-05-08T00:23:55.043Z,5.78
2023-05-08T00:28:56.616Z,5.47
2023-05-08T00:33:58.195Z,5.40
2023-05-08T00:38:59.846Z,5.28
2023-05-08T00:44:01.401Z,5.50
2023-05-08T00:49:05.690Z,5.03
2023-05-08T00:54:07.382Z,5.15
2023-05-08T00:59:11.647Z,5.63
2023-05-08T01:04:14.453Z,5.22
2023-05-08T01:09:16.007Z,5.28
2023-05-08T01:14:25.251Z,5.78
2023-05-08T01:19:46.215Z,5.45
2023-05-08T01:25:41.934Z,5.60
2023-05-08T01:30:58.573Z,6.35
2023-05-08T01:36:11.796Z,5.70
2023-05-08T01:41:18.403Z,5.80
2023-05-08T01:46:25.267Z,5.72
2023-05-08T01:51:31.441Z,5.68
2023-05-08T01:56:35.401Z,6.20
2023-05-08T02:01:37.007Z,6.63
2023-05-08T02:06:39.946Z,6.05
2023-05-08T02:11:43.920Z,6.13
2023-05-08T02:16:48.409Z,6.57
2023-05-08T02:21:50.934Z,6.70
2023-05-08T02:26:55.813Z,6.88
2023-05-08T02:31:58.257Z,6.53
2023-05-08T02:37:00.758Z,6.22
2023-05-08T02:42:04.003Z,6.75
2023-05-08T02:47:17.955Z,6.20
2023-05-08T02:52:35.077Z,6.50
2023-05-08T02:57:47.172Z,6.30
2023-05-08T03:03:00.774Z,6.82
2023-05-08T03:08:16.211Z,6.05
2023-05-08T03:13:19.666Z,7.15
2023-05-08T03:18:26.910Z,6.90
2023-05-08T03:23:33.108Z,6.93
2023-05-08T03:28:35.923Z,6.85
2023-05-08T03:33:39.016Z,7.03
2023-05-08T03:38:40.656Z,6.72
2023-05-08T03:43:43.884Z,6.90
2023-05-08T03:48:47.623Z,7.00
2023-05-08T03:53:49.452Z,7.05
2023-05-08T03:58:56.960Z,7.10
2023-05-08T04:04:10.286Z,7.47
2023-05-08T04:09:20.314Z,6.80
2023-05-08T04:14:26.321Z,6.40
2023-05-08T04:19:33.318Z,7.57
2023-05-08T04:24:40.604Z,6.32
2023-05-08T04:29:42.669Z,7.10
2023-05-08T04:34:44.878Z,7.70
2023-05-08T04:39:50.971Z,6.88
2023-05-08T04:44:53.572Z,6.75
2023-05-08T04:49:55.913Z,7.47
2023-05-08T04:54:57.668Z,7.40
2023-05-08T04:59:59.402Z,6.90
2023-05-08T05:05:02.078Z,7.63
2023-05-08T05:10:05.005Z,7.65
2023-05-08T05:15:08.598Z,7.50
2023-05-08T05:20:13.290Z,7.43
2023-05-08T05:25:15.193Z,7.43
2023-05-08T05:30:17.044Z,7.47
2023-05-08T05:35:18.998Z,7.57
2023-05-08T05:40:21.384Z,7.80
2023-05-08T05:45:22.965Z,7.43
2023-05-08T05:50:27.080Z,7.88
2023-05-08T05:55:30.048Z,7.07
2023-05-08T06:00:33.119Z,7.85
2023-05-08T06:05:36.084Z,7.43
2023-05-08T06:10:37.686Z,8.13
2023-05-08T06:15:40.065Z,7.72
2023-05-08T06:20:42.188Z,7.10
2023-05-08T06:25:44.471Z,7.28
2023-05-08T06:30:46.091Z,7.30
2023-05-08T06:35:48.469Z,7.90
2023-05-08T06:40:50.784Z,7.60
2023-05-08T06:45:53.241Z,6.82
2023-05-08T06:50:55.398Z,7.22
2023-05-08T06:56:00.374Z,7.40
2023-05-08T07:01:02.350Z,7.40
2023-05-08T07:06:04.690Z,7.20
2023-05-08T07:11:06.245Z,8.15
2023-05-08T07:16:10.971Z,7.30
2023-05-08T07:21:12.568Z,7.95
2023-05-08T07:26:14.547Z,7.35
2023-05-08T07:31:17.080Z,7.55
2023-05-08T07:36:18.639Z,7.38
2023-05-08T07:41:21.093Z,8.10
2023-05-08T07:46:22.749Z,7.50
2023-05-08T07:51:25.051Z,7.78
2023-05-08T07:56:27.513Z,7.32
2023-05-08T08:01:29.150Z,7.15
2023-05-08T08:06:31.692Z,7.43
2023-05-08T08:11:33.488Z,6.63
2023-05-08T08:16:35.036Z,7.47
2023-05-08T08:21:37.096Z,8.13
2023-05-08T08:26:38.581Z,7.80
2023-05-08T08:31:41.137Z,7.72
2023-05-08T08:36:43.432Z,7.53
2023-05-08T08:41:45.510Z,7.03
2023-05-08T08:46:53.637Z,8.20
2023-05-08T08:51:59.281Z,8.13
2023-05-08T08:57:05.216Z,7.75
2023-05-08T09:02:11.576Z,7.35
2023-05-08T09:07:13.481Z,7.40
2023-05-08T09:12:15.171Z,6.82
2023-05-08T09:17:17.387Z,8.40
2023-05-08T09:22:20.090Z,6.65
2023-05-08T09:27:22.915Z,7.40
2023-05-08T09:32:24.458Z,7.93
2023-05-08T09:37:27.386Z,7.35
2023-05-08T09:42:37.943Z,7.38
2023-05-08T09:47:48.425Z,6.95
2023-05-08T09:52:50.828Z,6.88
2023-05-08T09:58:00.129Z,7.07
2023-05-08T10:03:04.299Z,6.35
2023-05-08T10:08:21.176Z,6.68
2023-05-08T10:13:23.186Z,6.32
2023-05-08T10:18:30.258Z,6.28
2023-05-08T10:23:34.473Z,6.03
2023-05-08T10:28:42.465Z,5.60
2023-05-08T10:33:47.061Z,5.90
2023-05-08T10:38:50.420Z,5.82
2023-05-08T10:43:52.070Z,6.00
2023-05-08T10:49:09.213Z,5.57
2023-05-08T10:54:27.912Z,4.80
2023-05-08T10:59:35.948Z,5.82
2023-05-08T11:04:39.877Z,5.15
2023-05-08T11:09:42.026Z,4.60
2023-05-08T11:14:53.217Z,4.72
2023-05-08T11:20:13.093Z,5.28
2023-05-08T11:25:14.860Z,4.40
2023-05-08T11:30:20.427Z,4.05
2023-05-08T11:35:50.907Z,3.92
2023-05-08T11:41:01.496Z,3.92
2023-05-08T11:46:22.220Z,3.88
2023-05-08T11:51:23.794Z,3.90
2023-05-08T11:56:26.633Z,4.22
2023-05-08T12:01:35.202Z,3.78
2023-05-08T12:06:38.736Z,4.35
2023-05-08T12:11:44.037Z,4.05
2023-05-08T12:16:46.435Z,4.85
2023-05-08T12:21:48.970Z,4.88
2023-05-08T12:26:55.992Z,4.95
2023-05-08T12:31:58.421Z,4.75
2023-05-08T12:37:04.380Z,4.50
2023-05-08T12:42:06.341Z,4.75
2023-05-08T12:47:08.369Z,4.30
2023-05-08T12:52:13.775Z,4.72
2023-05-08T12:57:17.119Z,4.40
2023-05-08T13:02:24.222Z,4.43
2023-05-08T13:07:31.978Z,4.70
2023-05-08T13:12:34.109Z,4.57
2023-05-08T13:17:35.917Z,4.68
2023-05-08T13:22:37.431Z,4.68
2023-05-08T13:27:38.897Z,4.53
2023-05-08T13:32:41.311Z,5.25
2023-05-08T13:37:43.107Z,4.75
2023-05-08T13:42:44.642Z,4.68
2023-05-08T13:47:47.566Z,4.35
2023-05-08T13:52:49.684Z,4.40
2023-05-08T13:57:52.126Z,4.43
2023-05-08T14:02:53.719Z,3.60
2023-05-08T14:07:55.253Z,4.63
2023-05-08T14:12:56.835Z,4.10
2023-05-08T14:17:58.429Z,4.30
2023-05-08T14:23:00.395Z,4.63
2023-05-08T14:28:02.430Z,4.30
2023-05-08T14:33:03.983Z,5.28
2023-05-08T14:38:06.402Z,4.78
2023-05-08T14:43:08.492Z,4.38
2023-05-08T14:48:10.216Z,4.50
2023-05-08T14:53:11.873Z,3.83
2023-05-08T14:58:13.441Z,4.47
2023-05-08T15:03:15.025Z,4.30
2023-05-08T15:08:16.703Z,4.25
2023-05-08T15:13:19.386Z,4.15
2023-05-08T15:18:20.894Z,3.83
2023-05-08T15:23:22.423Z,4.00
2023-05-08T15:28:23.976Z,4.45
2023-05-08T15:33:25.767Z,3.95
2023-05-08T15:38:27.647Z,3.75
2023-05-08T15:43:29.210Z,4.00
2023-05-08T15:48:30.801Z,3.67
2023-05-08T15:53:33.014Z,3.70
2023-05-08T15:58:36.587Z,3.67
2023-05-08T16:03:38.246Z,3.42
2023-05-08T16:08:39.996Z,3.63
2023-05-08T16:13:41.709Z,3.00
2023-05-08T16:18:43.317Z,3.25
2023-05-08T16:23:44.891Z,2.90
2023-05-08T16:28:46.532Z,3.20
2023-05-08T16:33:48.158Z,3.17
2023-05-08T16:38:49.676Z,3.30
2023-05-08T16:43:51.173Z,3.55
2023-05-08T16:48:52.679Z,3.17
2023-05-08T16:53:56.030Z,3.08
2023-05-08T16:58:59.030Z,3.20
2023-05-08T17:04:00.848Z,3.38
2023-05-08T17:09:03.202Z,2.83
2023-05-08T17:14:04.826Z,3.03
2023-05-08T17:19:06.409Z,2.92
2023-05-08T17:24:08.342Z,3.05
2023-05-08T17:29:10.012Z,2.80
2023-05-08T17:34:11.601Z,3.20
2023-05-08T17:39:13.170Z,3.00
2023-05-08T17:44:15.288Z,2.75
2023-05-08T17:49:19.284Z,2.90
2023-05-08T17:54:21.215Z,3.25
2023-05-08T17:59:22.773Z,2.83
2023-05-08T18:04:24.336Z,2.88
2023-05-08T18:09:25.911Z,2.70
2023-05-08T18:14:34.007Z,2.70
2023-05-08T18:19:35.730Z,2.70
2023-05-08T18:24:37.302Z,2.88
2023-05-08T18:29:38.871Z,3.20
2023-05-08T18:34:41.006Z,2.67
2023-05-08T18:39:42.769Z,3.00
2023-05-08T18:44:44.379Z,2.95
2023-05-08T18:49:45.974Z,3.10
2023-05-08T18:54:48.231Z,3.45
2023-05-08T18:59:50.355Z,2.92
2023-05-08T19:04:51.919Z,3.13
2023-05-08T19:09:55.371Z,2.60
2023-05-08T19:14:56.888Z,2.97
2023-05-08T19:19:58.389Z,2.63
2023-05-08T19:24:59.928Z,3.38
2023-05-08T19:30:02.097Z,3.13
2023-05-08T19:35:04.724Z,3.53
2023-05-08T19:40:06.837Z,3.42
2023-05-08T19:45:10.189Z,3.13
2023-05-08T19:50:17.717Z,3.10
2023-05-08T19:55:19.351Z,2.93
2023-05-08T20:00:20.967Z,2.60
2023-05-08T20:05:23.426Z,2.97
2023-05-08T20:10:25.101Z,3.00
2023-05-08T20:15:26.746Z,3.63
2023-05-08T20:20:29.699Z,3.70
2023-05-08T20:25:31.424Z,3.40
2023-05-08T20:30:33.013Z,3.58
2023-05-08T20:35:35.349Z,3.40
2023-05-08T20:40:37.052Z,3.53
2023-05-08T20:45:38.812Z,3.50
2023-05-08T20:50:40.442Z,3.28
2023-05-08T20:55:42.024Z,3.33
2023-05-08T21:00:43.537Z,3.53
2023-05-08T21:05:45.197Z,3.50
2023-05-08T21:10:46.745Z,3.05
2023-05-08T21:15:50.277Z,3.42
2023-05-08T21:20:51.814Z,2.83
2023-05-08T21:25:53.445Z,3.05
2023-05-08T21:30:54.940Z,3.55
2023-05-08T21:35:56.535Z,3.30
2023-05-08T21:41:05.233Z,3.20
2023-05-08T21:46:09.104Z,3.05
2023-05-08T21:51:10.730Z,3.58
2023-05-08T21:56:12.271Z,3.67
2023-05-08T22:01:13.796Z,3.30
2023-05-08T22:06:15.368Z,3.40
2023-05-08T22:11:16.887Z,3.17
2023-05-08T22:16:18.468Z,3.30
2023-05-08T22:21:20.097Z,4.10
2023-05-08T22:26:22.483Z,3.70
2023-05-08T22:31:24.059Z,4.00
2023-05-08T22:36:25.738Z,4.22
2023-05-08T22:41:29.417Z,4.25
2023-05-08T22:46:33.504Z,4.07
2023-05-08T22:51:36.065Z,4.65
2023-05-08T22:56:38.154Z,4.38
2023-05-08T23:01:40.005Z,4.88
2023-05-08T23:06:41.692Z,4.32
2023-05-08T23:11:43.235Z,4.38
2023-05-08T23:16:44.755Z,4.63
2023-05-08T23:21:46.353Z,4.57
2023-05-08T23:26:49.574Z,4.70
2023-05-08T23:31:51.337Z,4.68
2023-05-08T23:36:53.012Z,4.45
2023-05-08T23:41:54.550Z,4.72
2023-05-08T23:46:56.101Z,4.93
2023-05-08T23:51:57.620Z,5.00
2023-05-08T23:56:59.137Z,4.63
